Time,TemperatureF,DewpointF,PressureIn,WindDirection,WindDirectionDegrees,WindSpeedMPH,WindSpeedGustMPH,Humidity,HourlyPrecipIn,Conditions,Clouds,dailyrainin,SoftwareType,DateUTC
2013-01-07 00:04:00,30.4,29.6,25.19,WSW,245,0.0,-999.0,97,-99.99,,,-99.99,dwt +perl,2013-01-07 08:04:00,
2013-01-07 00:09:00,30.4,29.6,25.19,WSW,245,0.0,-999.0,97,-99.99,,,-99.99,dwt +perl,2013-01-07 08:09:00,
2013-01-07 00:14:00,30.4,29.6,25.19,WSW,245,0.0,-999.0,97,-99.99,,,-99.99,dwt +perl,2013-01-07 08:14:00,
2013-01-07 00:19:00,30.3,29.5,25.19,WSW,245,0.0,-999.0,97,-99.99,,,-99.99,dwt +perl,2013-01-07 08:19:00,
2013-01-07 00:24:00,30.3,29.5,25.19,WSW,245,0.0,-999.0,97,-99.99,,,-99.99,dwt +perl,2013-01-07 08:24:00,
2013-01-07 00:29:00,30.5,29.8,25.19,WSW,244,0.0,-999.0,97,-99.99,,,-99.99,dwt +perl,2013-01-07 08:29:00,
2013-01-07 00:34:00,30.7,30.0,25.19,WSW,245,0.0,-999.0,97,-99.99,,,-99.99,dwt +perl,2013-01-07 08:34:00,
2013-01-07 00:39:00,31.0,30.0,25.19,WSW,245,0.0,-999.0,96,-99.99,,,-99.99,dwt +perl,2013-01-07 08:39:00,
2013-01-07 00:44:00,31.3,30.3,25.19,WSW,245,0.0,-999.0,96,-99.99,,,-99.99,dwt +perl,2013-01-07 08:44:00,
2013-01-07 00:49:00,31.4,30.4,25.19,WSW,245,0.0,-999.0,96,-99.99,,,-99.99,dwt +perl,2013-01-07 08:49:00,
2013-01-07 00:54:00,31.5,30.2,25.18,WSW,245,0.0,-999.0,95,-99.99,,,-99.99,dwt +perl,2013-01-07 08:54:00,
2013-01-07 00:59:00,31.7,30.2,25.18,WSW,245,0.0,-999.0,94,-99.99,,,-99.99,dwt +perl,2013-01-07 08:59:00,
2013-01-07 01:04:00,31.7,30.2,25.18,WSW,245,0.0,-999.0,94,-99.99,,,-99.99,dwt +perl,2013-01-07 09:04:00,
2013-01-07 01:09:00,31.9,30.1,25.18,WSW,245,0.0,-999.0,93,-99.99,,,-99.99,dwt +perl,2013-01-07 09:09:00,
2013-01-07 01:14:00,31.8,30.0,25.18,WSW,245,0.0,-999.0,93,-99.99,,,-99.99,dwt +perl,2013-01-07 09:14:00,
2013-01-07 01:19:00,31.7,29.9,25.18,WSW,245,0.0,-999.0,93,-99.99,,,-99.99,dwt +perl,2013-01-07 09:19:00,
2013-01-07 01:24:00,31.6,29.8,25.18,WSW,245,0.0,-999.0,93,-99.99,,,-99.99,dwt +perl,2013-01-07 09:24:00,
2013-01-07 01:29:00,31.6,29.8,25.19,WSW,245,0.0,-999.0,93,-99.99,,,-99.99,dwt +perl,2013-01-07 09:29:00,
2013-01-07 01:34:00,31.4,29.6,25.19,WSW,245,0.0,-999.0,93,-99.99,,,-99.99,dwt +perl,2013-01-07 09:34:00,
2013-01-07 01:39:00,31.1,29.6,25.19,WSW,245,0.0,-999.0,94,-99.99,,,-99.99,dwt +perl,2013-01-07 09:39:00,
2013-01-07 01:44:00,30.9,29.4,25.19,WSW,245,0.0,-999.0,94,-99.99,,,-99.99,dwt +perl,2013-01-07 09:44:00,
2013-01-07 01:49:00,30.8,29.5,25.20,WSW,245,0.0,-999.0,95,-99.99,,,-99.99,dwt +perl,2013-01-07 09:49:00,
2013-01-07 01:54:00,30.8,29.5,25.20,WSW,245,0.0,-999.0,95,-99.99,,,-99.99,dwt +perl,2013-01-07 09:54:00,
2013-01-07 01:59:00,30.8,29.5,25.20,WSW,245,0.0,-999.0,95,-99.99,,,-99.99,dwt +perl,2013-01-07 09:59:00,
2013-01-07 02:04:00,30.8,29.5,25.20,WSW,245,0.0,-999.0,95,-99.99,,,-99.99,dwt +perl,2013-01-07 10:04:00,
2013-01-07 02:09:00,31.1,29.8,25.20,WSW,245,0.0,-999.0,95,-99.99,,,-99.99,dwt +perl,2013-01-07 10:09:00,
2013-01-07 02:14:00,31.2,29.9,25.20,WSW,245,0.0,-999.0,95,-99.99,,,-99.99,dwt +perl,2013-01-07 10:14:00,
2013-01-07 02:19:00,31.5,30.0,25.20,WSW,245,0.0,-999.0,94,-99.99,,,-99.99,dwt +perl,2013-01-07 10:19:00,
2013-01-07 02:24:00,31.6,30.1,25.20,WSW,245,0.0,-999.0,94,-99.99,,,-99.99,dwt +perl,2013-01-07 10:24:00,
2013-01-07 02:29:00,31.9,30.1,25.20,WSW,245,0.0,-999.0,93,-99.99,,,-99.99,dwt +perl,2013-01-07 10:29:00,
2013-01-07 02:34:00,31.9,30.4,25.20,WSW,245,0.0,-999.0,94,-99.99,,,-99.99,dwt +perl,2013-01-07 10:34:00,
2013-01-07 02:39:00,31.7,30.2,25.20,WSW,245,0.0,-999.0,94,-99.99,,,-99.99,dwt +perl,2013-01-07 10:39:00,
2013-01-07 02:44:00,31.6,30.1,25.21,WSW,245,0.0,-999.0,94,-99.99,,,-99.99,dwt +perl,2013-01-07 10:44:00,
2013-01-07 02:49:00,31.8,30.3,25.20,WSW,245,0.0,-999.0,94,-99.99,,,-99.99,dwt +perl,2013-01-07 10:49:00,
2013-01-07 02:54:00,31.8,30.0,25.20,WSW,245,0.0,-999.0,93,-99.99,,,-99.99,dwt +perl,2013-01-07 10:54:00,
2013-01-07 02:59:00,31.8,30.3,25.20,WSW,245,0.0,-999.0,94,-99.99,,,-99.99,dwt +perl,2013-01-07 10:59:00,
2013-01-07 03:04:00,32.0,30.2,25.20,WSW,245,0.0,-999.0,93,-99.99,,,-99.99,dwt +perl,2013-01-07 11:04:00,
2013-01-07 03:09:00,31.9,30.1,25.21,WSW,245,0.0,-999.0,93,-99.99,,,-99.99,dwt +perl,2013-01-07 11:09:00,
2013-01-07 03:14:00,31.8,30.0,25.21,WSW,245,0.0,-999.0,93,-99.99,,,-99.99,dwt +perl,2013-01-07 11:14:00,
2013-01-07 03:19:00,31.8,30.0,25.21,WSW,245,0.0,-999.0,93,-99.99,,,-99.99,dwt +perl,2013-01-07 11:19:00,
2013-01-07 03:24:00,31.8,30.0,25.21,WSW,245,0.0,-999.0,93,-99.99,,,-99.99,dwt +perl,2013-01-07 11:24:00,
2013-01-07 03:29:00,32.0,30.2,25.22,WSW,245,0.0,-999.0,93,-99.99,,,-99.99,dwt +perl,2013-01-07 11:29:00,
2013-01-07 03:34:00,32.1,30.3,25.21,WSW,245,0.0,-999.0,93,-99.99,,,-99.99,dwt +perl,2013-01-07 11:34:00,
2013-01-07 03:39:00,32.2,30.4,25.22,WSW,245,0.0,-999.0,93,-99.99,,,-99.99,dwt +perl,2013-01-07 11:39:00,
2013-01-07 03:44:00,32.1,30.3,25.22,WSW,245,0.0,-999.0,93,-99.99,,,-99.99,dwt +perl,2013-01-07 11:44:00,
2013-01-07 03:49:00,32.4,30.6,25.22,WSW,245,0.0,-999.0,93,-99.99,,,-99.99,dwt +perl,2013-01-07 11:49:00,
2013-01-07 03:54:00,32.7,30.6,25.22,WSW,245,0.0,-999.0,92,-99.99,,,-99.99,dwt +perl,2013-01-07 11:54:00,
2013-01-07 03:59:00,32.5,30.7,25.23,WSW,245,0.0,-999.0,93,-99.99,,,-99.99,dwt +perl,2013-01-07 11:59:00,
2013-01-07 04:04:00,32.6,30.8,25.22,WSW,245,0.0,-999.0,93,-99.99,,,-99.99,dwt +perl,2013-01-07 12:04:00,
2013-01-07 04:09:00,32.3,30.2,25.22,WSW,245,0.0,-999.0,92,-99.99,,,-99.99,dwt +perl,2013-01-07 12:09:00,
2013-01-07 04:14:00,32.1,30.3,25.22,WSW,245,0.0,-999.0,93,-99.99,,,-99.99,dwt +perl,2013-01-07 12:14:00,
2013-01-07 04:19:00,32.2,30.1,25.22,WSW,245,0.0,-999.0,92,-99.99,,,-99.99,dwt +perl,2013-01-07 12:19:00,
2013-01-07 04:24:00,31.9,30.1,25.22,WSW,245,0.0,-999.0,93,-99.99,,,-99.99,dwt +perl,2013-01-07 12:24:00,
2013-01-07 04:29:00,31.9,30.4,25.22,WSW,245,0.0,-999.0,94,-99.99,,,-99.99,dwt +perl,2013-01-07 12:29:00,
2013-01-07 04:34:00,32.2,30.4,25.21,WSW,245,0.0,-999.0,93,-99.99,,,-99.99,dwt +perl,2013-01-07 12:34:00,
2013-01-07 04:39:00,32.0,30.5,25.21,WSW,245,0.0,-999.0,94,-99.99,,,-99.99,dwt +perl,2013-01-07 12:39:00,
2013-01-07 04:44:00,32.0,30.5,25.21,WSW,245,0.0,-999.0,94,-99.99,,,-99.99,dwt +perl,2013-01-07 12:44:00,
2013-01-07 04:49:00,32.2,30.4,25.21,WSW,245,0.0,-999.0,93,-99.99,,,-99.99,dwt +perl,2013-01-07 12:49:00,
2013-01-07 04:54:00,32.5,30.2,25.21,WSW,245,0.0,-999.0,91,-99.99,,,-99.99,dwt +perl,2013-01-07 12:54:00,
2013-01-07 04:59:00,32.7,29.5,25.21,WSW,245,0.0,-999.0,88,-99.99,,,-99.99,dwt +perl,2013-01-07 12:59:00,
2013-01-07 05:04:00,32.6,29.4,25.21,WSW,245,0.0,-999.0,88,-99.99,,,-99.99,dwt +perl,2013-01-07 13:04:00,
2013-01-07 05:09:00,32.6,29.7,25.21,WSW,245,0.0,-999.0,89,-99.99,,,-99.99,dwt +perl,2013-01-07 13:09:00,
2013-01-07 05:14:00,32.5,29.6,25.21,WSW,245,0.0,-999.0,89,-99.99,,,-99.99,dwt +perl,2013-01-07 13:14:00,
2013-01-07 05:19:00,32.4,29.8,25.22,WSW,245,0.0,-999.0,90,-99.99,,,-99.99,dwt +perl,2013-01-07 13:19:00,
2013-01-07 05:24:00,32.3,29.7,25.22,WSW,245,0.0,-999.0,90,-99.99,,,-99.99,dwt +perl,2013-01-07 13:24:00,
2013-01-07 05:29:00,32.6,29.7,25.22,WSW,245,0.0,-999.0,89,-99.99,,,-99.99,dwt +perl,2013-01-07 13:29:00,
2013-01-07 05:34:00,32.8,29.9,25.22,WSW,245,0.0,-999.0,89,-99.99,,,-99.99,dwt +perl,2013-01-07 13:34:00,
2013-01-07 05:39:00,32.5,30.2,25.23,WSW,245,0.0,-999.0,91,-99.99,,,-99.99,dwt +perl,2013-01-07 13:39:00,
2013-01-07 05:44:00,32.2,30.1,25.23,WSW,245,0.0,-999.0,92,-99.99,,,-99.99,dwt +perl,2013-01-07 13:44:00,
2013-01-07 05:49:00,32.2,30.1,25.23,WSW,245,0.0,-999.0,92,-99.99,,,-99.99,dwt +perl,2013-01-07 13:49:00,
2013-01-07 05:54:00,32.0,30.2,25.23,WSW,245,0.0,-999.0,93,-99.99,,,-99.99,dwt +perl,2013-01-07 13:54:00,
2013-01-07 05:59:00,32.1,30.3,25.23,WSW,245,0.0,-999.0,93,-99.99,,,-99.99,dwt +perl,2013-01-07 13:59:00,
2013-01-07 06:04:00,32.0,30.2,25.23,WSW,245,0.0,-999.0,93,-99.99,,,-99.99,dwt +perl,2013-01-07 14:04:00,
2013-01-07 06:09:00,32.3,30.5,25.23,WSW,245,0.0,-999.0,93,-99.99,,,-99.99,dwt +perl,2013-01-07 14:09:00,
2013-01-07 06:14:00,32.5,30.4,25.23,WSW,245,0.0,-999.0,92,-99.99,,,-99.99,dwt +perl,2013-01-07 14:14:00,
2013-01-07 06:19:00,32.9,30.6,25.23,WSW,245,0.0,-999.0,91,-99.99,,,-99.99,dwt +perl,2013-01-07 14:19:00,
2013-01-07 06:24:00,32.8,30.5,25.24,WSW,245,0.0,-999.0,91,-99.99,,,-99.99,dwt +perl,2013-01-07 14:24:00,
2013-01-07 06:29:00,33.1,30.8,25.24,WSW,245,0.0,-999.0,91,-99.99,,,-99.99,dwt +perl,2013-01-07 14:29:00,
2013-01-07 06:39:00,33.4,30.8,25.24,NW,313,0.0,-999.0,90,-99.99,,,-99.99,dwt +perl,2013-01-07 14:39:00,
2013-01-07 06:44:00,33.9,30.7,25.24,NNE,27,4.0,-999.0,88,-99.99,,,-99.99,dwt +perl,2013-01-07 14:44:00,
2013-01-07 06:49:00,34.2,30.5,25.24,North,354,5.0,-999.0,86,-99.99,,,-99.99,dwt +perl,2013-01-07 14:49:00,
2013-01-07 06:54:00,35.0,30.1,25.24,NW,319,5.0,-999.0,82,-99.99,,,-99.99,dwt +perl,2013-01-07 14:54:00,
2013-01-07 06:59:00,35.3,29.8,25.25,NNE,12,6.0,-999.0,80,-99.99,,,-99.99,dwt +perl,2013-01-07 14:59:00,
2013-01-07 07:04:00,35.1,29.2,25.25,NNE,16,9.0,-999.0,79,-99.99,,,-99.99,dwt +perl,2013-01-07 15:04:00,
2013-01-07 07:09:00,34.9,28.4,25.25,NNW,341,7.0,-999.0,77,-99.99,,,-99.99,dwt +perl,2013-01-07 15:09:00,
2013-01-07 07:14:00,34.7,28.5,25.25,NNE,22,7.0,-999.0,78,-99.99,,,-99.99,dwt +perl,2013-01-07 15:14:00,
2013-01-07 07:19:00,34.6,28.1,25.25,NNE,30,11.0,-999.0,77,-99.99,,,-99.99,dwt +perl,2013-01-07 15:19:00,
2013-01-07 07:24:00,34.8,28.3,25.26,NNE,16,9.0,-999.0,77,-99.99,,,-99.99,dwt +perl,2013-01-07 15:24:00,
2013-01-07 07:29:00,34.6,28.1,25.26,NNW,332,9.0,-999.0,77,-99.99,,,-99.99,dwt +perl,2013-01-07 15:29:00,
2013-01-07 07:34:00,34.5,28.4,25.26,NNE,16,11.0,-999.0,78,-99.99,,,-99.99,dwt +perl,2013-01-07 15:34:00,
2013-01-07 07:39:00,34.7,27.9,25.26,NW,314,10.0,-999.0,76,-99.99,,,-99.99,dwt +perl,2013-01-07 15:39:00,
2013-01-07 07:44:00,35.0,27.9,25.26,NNW,331,12.0,-999.0,75,-99.99,,,-99.99,dwt +perl,2013-01-07 15:44:00,
2013-01-07 07:49:00,35.0,27.6,25.27,North,9,10.0,-999.0,74,-99.99,,,-99.99,dwt +perl,2013-01-07 15:49:00,
2013-01-07 07:54:00,35.5,26.7,25.26,NNE,20,9.0,-999.0,70,-99.99,,,-99.99,dwt +perl,2013-01-07 15:54:00,
2013-01-07 07:59:00,35.6,26.8,25.26,NNE,27,7.0,-999.0,70,-99.99,,,-99.99,dwt +perl,2013-01-07 15:59:00,
2013-01-07 08:04:00,35.6,26.5,25.27,NNE,17,17.0,-999.0,69,-99.99,,,-99.99,dwt +perl,2013-01-07 16:04:00,
2013-01-07 08:09:00,35.9,27.1,25.27,NNE,23,7.0,-999.0,70,-99.99,,,-99.99,dwt +perl,2013-01-07 16:09:00,
2013-01-07 08:14:00,36.0,27.2,25.27,NE,45,11.0,-999.0,70,-99.99,,,-99.99,dwt +perl,2013-01-07 16:14:00,
2013-01-07 08:19:00,36.2,26.7,25.27,NNW,345,7.0,-999.0,68,-99.99,,,-99.99,dwt +perl,2013-01-07 16:19:00,
2013-01-07 08:24:00,36.3,26.4,25.27,NNE,22,10.0,-999.0,67,-99.99,,,-99.99,dwt +perl,2013-01-07 16:24:00,
2013-01-07 08:29:00,36.7,26.1,25.27,NW,324,10.0,-999.0,65,-99.99,,,-99.99,dwt +perl,2013-01-07 16:29:00,
2013-01-07 08:34:00,36.8,25.0,25.28,NNE,14,12.0,-999.0,62,-99.99,,,-99.99,dwt +perl,2013-01-07 16:34:00,
2013-01-07 08:44:00,36.4,26.1,25.28,NNE,26,10.0,-999.0,66,-99.99,,,-99.99,dwt +perl,2013-01-07 16:44:00,
2013-01-07 08:47:00,36.9,25.9,25.29,North,8,16.0,-999.0,64,-99.99,,,-99.99,dwt +perl,2013-01-07 16:47:00,
2013-01-07 08:49:00,36.8,25.8,25.29,NNE,13,13.0,-999.0,64,-99.99,,,-99.99,dwt +perl,2013-01-07 16:49:00,
2013-01-07 08:54:00,36.9,25.9,25.29,North,8,16.0,-999.0,64,-99.99,,,-99.99,dwt +perl,2013-01-07 16:54:00,
2013-01-07 09:04:00,36.6,26.7,25.29,NNE,29,7.0,-999.0,67,-99.99,,,-99.99,dwt +perl,2013-01-07 17:04:00,
2013-01-07 09:09:00,37.1,25.7,25.29,NNE,18,9.0,-999.0,63,-99.99,,,-99.99,dwt +perl,2013-01-07 17:09:00,
2013-01-07 09:14:00,37.2,25.0,25.29,NE,39,11.0,-999.0,61,-99.99,,,-99.99,dwt +perl,2013-01-07 17:14:00,
2013-01-07 09:19:00,37.4,24.8,25.29,NNE,16,20.0,-999.0,60,-99.99,,,-99.99,dwt +perl,2013-01-07 17:19:00,
2013-01-07 09:24:00,37.9,23.6,25.29,NNE,16,15.0,-999.0,56,-99.99,,,-99.99,dwt +perl,2013-01-07 17:24:00,
2013-01-07 09:29:00,38.4,22.3,25.29,NE,35,8.0,-999.0,52,-99.99,,,-99.99,dwt +perl,2013-01-07 17:29:00,
2013-01-07 09:34:00,38.4,22.8,25.28,ENE,65,7.0,-999.0,53,-99.99,,,-99.99,dwt +perl,2013-01-07 17:34:00,
2013-01-07 09:39:00,38.7,21.2,25.28,NE,52,9.0,-999.0,49,-99.99,,,-99.99,dwt +perl,2013-01-07 17:39:00,
2013-01-07 09:44:00,39.5,18.9,25.28,NE,38,11.0,-999.0,43,-99.99,,,-99.99,dwt +perl,2013-01-07 17:44:00,
2013-01-07 09:49:00,40.0,17.6,25.28,NE,34,11.0,-999.0,40,-99.99,,,-99.99,dwt +perl,2013-01-07 17:49:00,
2013-01-07 09:54:00,40.1,18.3,25.29,North,9,7.0,-999.0,41,-99.99,,,-99.99,dwt +perl,2013-01-07 17:54:00,
2013-01-07 09:59:00,39.8,19.1,25.30,NE,49,15.0,-999.0,43,-99.99,,,-99.99,dwt +perl,2013-01-07 17:59:00,
2013-01-07 10:04:00,39.7,19.0,25.29,NE,43,10.0,-999.0,43,-99.99,,,-99.99,dwt +perl,2013-01-07 18:04:00,
2013-01-07 10:09:00,39.2,20.2,25.29,NNE,25,18.0,-999.0,46,-99.99,,,-99.99,dwt +perl,2013-01-07 18:09:00,
2013-01-07 10:14:00,39.3,19.2,25.29,NE,41,9.0,-999.0,44,-99.99,,,-99.99,dwt +perl,2013-01-07 18:14:00,
2013-01-07 10:19:00,39.8,17.5,25.29,NE,46,14.0,-999.0,40,-99.99,,,-99.99,dwt +perl,2013-01-07 18:19:00,
2013-01-07 10:24:00,40.1,18.3,25.29,NE,37,11.0,-999.0,41,-99.99,,,-99.99,dwt +perl,2013-01-07 18:24:00,
2013-01-07 10:29:00,40.5,15.0,25.28,NE,43,13.0,-999.0,35,-99.99,,,-99.99,dwt +perl,2013-01-07 18:29:00,
2013-01-07 10:34:00,40.7,15.2,25.28,NE,41,10.0,-999.0,35,-99.99,,,-99.99,dwt +perl,2013-01-07 18:34:00,
2013-01-07 10:39:00,41.3,15.7,25.29,NNE,20,11.0,-999.0,35,-99.99,,,-99.99,dwt +perl,2013-01-07 18:39:00,
2013-01-07 10:44:00,41.3,17.6,25.29,NNE,27,12.0,-999.0,38,-99.99,,,-99.99,dwt +perl,2013-01-07 18:44:00,
2013-01-07 10:49:00,41.2,16.9,25.29,NE,50,9.0,-999.0,37,-99.99,,,-99.99,dwt +perl,2013-01-07 18:49:00,
2013-01-07 10:54:00,41.0,16.1,25.29,NNE,14,10.0,-999.0,36,-99.99,,,-99.99,dwt +perl,2013-01-07 18:54:00,
2013-01-07 10:59:00,40.9,12.6,25.29,NE,39,8.0,-999.0,31,-99.99,,,-99.99,dwt +perl,2013-01-07 18:59:00,
2013-01-07 11:04:00,40.5,13.7,25.29,NNE,25,10.0,-999.0,33,-99.99,,,-99.99,dwt +perl,2013-01-07 19:04:00,
2013-01-07 11:09:00,40.6,15.1,25.29,NE,37,11.0,-999.0,35,-99.99,,,-99.99,dwt +perl,2013-01-07 19:09:00,
2013-01-07 11:14:00,40.4,12.9,25.29,NNE,30,10.0,-999.0,32,-99.99,,,-99.99,dwt +perl,2013-01-07 19:14:00,
2013-01-07 11:19:00,40.2,16.0,25.29,NNE,33,7.0,-999.0,37,-99.99,,,-99.99,dwt +perl,2013-01-07 19:19:00,
2013-01-07 11:24:00,40.2,17.2,25.29,NW,319,11.0,-999.0,39,-99.99,,,-99.99,dwt +perl,2013-01-07 19:24:00,
2013-01-07 11:29:00,40.9,16.6,25.29,NNE,14,11.0,-999.0,37,-99.99,,,-99.99,dwt +perl,2013-01-07 19:29:00,
2013-01-07 11:34:00,41.2,16.9,25.29,NNW,339,11.0,-999.0,37,-99.99,,,-99.99,dwt +perl,2013-01-07 19:34:00,
2013-01-07 11:39:00,41.2,16.9,25.29,North,4,8.0,-999.0,37,-99.99,,,-99.99,dwt +perl,2013-01-07 19:39:00,
2013-01-07 11:44:00,41.4,17.7,25.28,NW,314,18.0,-999.0,38,-99.99,,,-99.99,dwt +perl,2013-01-07 19:44:00,
2013-01-07 11:49:00,41.3,18.8,25.28,NW,305,7.0,-999.0,40,-99.99,,,-99.99,dwt +perl,2013-01-07 19:49:00,
2013-01-07 11:54:00,41.4,21.7,25.28,NW,310,6.0,-999.0,45,-99.99,,,-99.99,dwt +perl,2013-01-07 19:54:00,
2013-01-07 11:59:00,41.4,21.1,25.28,NNW,330,14.0,-999.0,44,-99.99,,,-99.99,dwt +perl,2013-01-07 19:59:00,
2013-01-07 12:04:00,41.7,21.4,25.28,WNW,301,10.0,-999.0,44,-99.99,,,-99.99,dwt +perl,2013-01-07 20:04:00,
2013-01-07 12:09:00,41.7,14.0,25.27,NNW,335,10.0,-999.0,32,-99.99,,,-99.99,dwt +perl,2013-01-07 20:09:00,
2013-01-07 12:14:00,41.7,16.7,25.27,North,359,13.0,-999.0,36,-99.99,,,-99.99,dwt +perl,2013-01-07 20:14:00,
2013-01-07 12:19:00,41.7,16.7,25.27,North,4,11.0,-999.0,36,-99.99,,,-99.99,dwt +perl,2013-01-07 20:19:00,
2013-01-07 12:29:00,41.9,17.5,25.26,NW,317,8.0,-999.0,37,-99.99,,,-99.99,dwt +perl,2013-01-07 20:29:00,
2013-01-07 12:34:00,41.9,20.5,25.26,North,349,11.0,-999.0,42,-99.99,,,-99.99,dwt +perl,2013-01-07 20:34:00,
2013-01-07 12:39:00,41.9,21.0,25.25,WNW,297,7.0,-999.0,43,-99.99,,,-99.99,dwt +perl,2013-01-07 20:39:00,
2013-01-07 12:44:00,42.2,23.9,25.26,NW,326,18.0,-999.0,48,-99.99,,,-99.99,dwt +perl,2013-01-07 20:44:00,
2013-01-07 12:49:00,42.4,26.0,25.25,NW,311,17.0,-999.0,52,-99.99,,,-99.99,dwt +perl,2013-01-07 20:49:00,
2013-01-07 12:54:00,42.3,27.3,25.25,North,4,13.0,-999.0,55,-99.99,,,-99.99,dwt +perl,2013-01-07 20:54:00,
2013-01-07 12:59:00,42.3,29.4,25.25,NNW,331,7.0,-999.0,60,-99.99,,,-99.99,dwt +perl,2013-01-07 20:59:00,
2013-01-07 13:04:00,42.5,32.3,25.25,NNW,339,11.0,-999.0,67,-99.99,,,-99.99,dwt +perl,2013-01-07 21:04:00,
2013-01-07 13:09:00,42.5,32.0,25.25,North,354,16.0,-999.0,66,-99.99,,,-99.99,dwt +perl,2013-01-07 21:09:00,
2013-01-07 13:14:00,42.6,32.4,25.25,NNE,32,15.0,-999.0,67,-99.99,,,-99.99,dwt +perl,2013-01-07 21:14:00,
2013-01-07 13:19:00,42.6,32.8,25.24,North,8,15.0,-999.0,68,-99.99,,,-99.99,dwt +perl,2013-01-07 21:19:00,
2013-01-07 13:24:00,42.7,33.2,25.24,North,4,5.0,-999.0,69,-99.99,,,-99.99,dwt +perl,2013-01-07 21:24:00,
2013-01-07 13:29:00,42.8,33.0,25.24,NW,316,10.0,-999.0,68,-99.99,,,-99.99,dwt +perl,2013-01-07 21:29:00,
2013-01-07 13:34:00,42.8,33.7,25.24,NW,316,11.0,-999.0,70,-99.99,,,-99.99,dwt +perl,2013-01-07 21:34:00,
2013-01-07 13:39:00,42.8,32.6,25.24,North,9,14.0,-999.0,67,-99.99,,,-99.99,dwt +perl,2013-01-07 21:39:00,
2013-01-07 13:44:00,42.6,33.9,25.24,NE,43,14.0,-999.0,71,-99.99,,,-99.99,dwt +perl,2013-01-07 21:44:00,
2013-01-07 13:49:00,42.5,34.1,25.23,NW,310,13.0,-999.0,72,-99.99,,,-99.99,dwt +perl,2013-01-07 21:49:00,
2013-01-07 13:54:00,42.7,34.7,25.23,NW,312,12.0,-999.0,73,-99.99,,,-99.99,dwt +perl,2013-01-07 21:54:00,
2013-01-07 13:59:00,42.6,33.9,25.23,NW,326,13.0,-999.0,71,-99.99,,,-99.99,dwt +perl,2013-01-07 21:59:00,
2013-01-07 14:04:00,42.4,33.3,25.23,North,4,9.0,-999.0,70,-99.99,,,-99.99,dwt +perl,2013-01-07 22:04:00,
2013-01-07 14:09:00,42.9,34.5,25.23,NNE,23,9.0,-999.0,72,-99.99,,,-99.99,dwt +perl,2013-01-07 22:09:00,
2013-01-07 14:14:00,43.0,34.2,25.23,North,349,11.0,-999.0,71,-99.99,,,-99.99,dwt +perl,2013-01-07 22:14:00,
2013-01-07 14:19:00,43.4,34.3,25.22,WNW,302,9.0,-999.0,70,-99.99,,,-99.99,dwt +perl,2013-01-07 22:19:00,
2013-01-07 14:24:00,43.5,34.4,25.23,NE,43,4.0,-999.0,70,-99.99,,,-99.99,dwt +perl,2013-01-07 22:24:00,
2013-01-07 14:29:00,43.8,34.3,25.22,NW,318,9.0,-999.0,69,-99.99,,,-99.99,dwt +perl,2013-01-07 22:29:00,
2013-01-07 14:34:00,43.7,35.3,25.22,NNW,330,17.0,-999.0,72,-99.99,,,-99.99,dwt +perl,2013-01-07 22:34:00,
2013-01-07 14:39:00,43.7,34.9,25.22,NE,35,7.0,-999.0,71,-99.99,,,-99.99,dwt +perl,2013-01-07 22:39:00,
2013-01-07 14:44:00,43.2,34.4,25.22,NNW,342,10.0,-999.0,71,-99.99,,,-99.99,dwt +perl,2013-01-07 22:44:00,
2013-01-07 14:49:00,42.7,35.0,25.22,NW,310,14.0,-999.0,74,-99.99,,,-99.99,dwt +perl,2013-01-07 22:49:00,
2013-01-07 14:54:00,42.5,35.1,25.22,NW,320,12.0,-999.0,75,-99.99,,,-99.99,dwt +perl,2013-01-07 22:54:00,
2013-01-07 14:59:00,42.4,35.4,25.22,North,8,5.0,-999.0,76,-99.99,,,-99.99,dwt +perl,2013-01-07 22:59:00,
2013-01-07 15:04:00,42.5,35.8,25.22,WNW,303,10.0,-999.0,77,-99.99,,,-99.99,dwt +perl,2013-01-07 23:04:00,
2013-01-07 15:09:00,42.7,35.7,25.22,NNW,341,10.0,-999.0,76,-99.99,,,-99.99,dwt +perl,2013-01-07 23:09:00,
2013-01-07 15:14:00,42.8,35.8,25.22,NNW,330,15.0,-999.0,76,-99.99,,,-99.99,dwt +perl,2013-01-07 23:14:00,
2013-01-07 15:24:00,42.5,35.8,25.22,WNW,303,10.0,-999.0,77,-99.99,,,-99.99,dwt +perl,2013-01-07 23:24:00,
2013-01-07 15:29:00,42.5,35.8,25.23,NNW,329,17.0,-999.0,77,-99.99,,,-99.99,dwt +perl,2013-01-07 23:29:00,
2013-01-07 15:39:00,42.8,35.8,25.23,North,349,16.0,-999.0,76,-99.99,,,-99.99,dwt +perl,2013-01-07 23:39:00,
2013-01-07 15:44:00,43.0,35.6,25.22,North,11,8.0,-999.0,75,-99.99,,,-99.99,dwt +perl,2013-01-07 23:44:00,
2013-01-07 15:54:00,42.8,36.1,25.22,NNW,332,10.0,-999.0,77,-99.99,,,-99.99,dwt +perl,2013-01-07 23:54:00,
2013-01-07 15:59:00,43.3,35.9,25.22,NW,317,11.0,-999.0,75,-99.99,,,-99.99,dwt +perl,2013-01-07 23:59:00,
2013-01-07 16:04:00,43.6,35.9,25.22,NNW,347,11.0,-999.0,74,-99.99,,,-99.99,dwt +perl,2013-01-08 00:04:00,
2013-01-07 16:09:00,43.7,36.0,25.22,NNE,30,5.0,-999.0,74,-99.99,,,-99.99,dwt +perl,2013-01-08 00:09:00,
2013-01-07 16:14:00,43.9,36.5,25.23,NE,35,12.0,-999.0,75,-99.99,,,-99.99,dwt +perl,2013-01-08 00:14:00,
2013-01-07 16:19:00,44.0,36.2,25.22,East,88,8.0,-999.0,74,-99.99,,,-99.99,dwt +perl,2013-01-08 00:19:00,
2013-01-07 16:24:00,44.0,36.6,25.22,WNW,287,16.0,-999.0,75,-99.99,,,-99.99,dwt +perl,2013-01-08 00:24:00,
2013-01-07 16:29:00,44.1,36.7,25.22,NW,310,11.0,-999.0,75,-99.99,,,-99.99,dwt +perl,2013-01-08 00:29:00,
2013-01-07 16:34:00,44.0,36.6,25.22,NNE,14,9.0,-999.0,75,-99.99,,,-99.99,dwt +perl,2013-01-08 00:34:00,
2013-01-07 16:39:00,43.8,36.7,25.22,NNE,17,15.0,-999.0,76,-99.99,,,-99.99,dwt +perl,2013-01-08 00:39:00,
2013-01-07 16:49:00,43.4,36.7,25.22,NE,50,17.0,-999.0,77,-99.99,,,-99.99,dwt +perl,2013-01-08 00:49:00,
2013-01-07 16:54:00,43.2,36.5,25.22,NNE,20,11.0,-999.0,77,-99.99,,,-99.99,dwt +perl,2013-01-08 00:54:00,
2013-01-07 16:59:00,42.9,36.5,25.22,North,4,10.0,-999.0,78,-99.99,,,-99.99,dwt +perl,2013-01-08 00:59:00,
2013-01-07 17:04:00,42.8,36.7,25.22,NE,49,11.0,-999.0,79,-99.99,,,-99.99,dwt +perl,2013-01-08 01:04:00,
2013-01-07 17:09:00,43.1,37.0,25.22,NE,37,16.0,-999.0,79,-99.99,,,-99.99,dwt +perl,2013-01-08 01:09:00,
2013-01-07 17:14:00,43.2,36.8,25.21,North,349,13.0,-999.0,78,-99.99,,,-99.99,dwt +perl,2013-01-08 01:14:00,
2013-01-07 17:19:00,42.9,36.5,25.21,ENE,58,13.0,-999.0,78,-99.99,,,-99.99,dwt +perl,2013-01-08 01:19:00,
2013-01-07 17:24:00,43.5,36.8,25.21,NE,43,12.0,-999.0,77,-99.99,,,-99.99,dwt +perl,2013-01-08 01:24:00,
2013-01-07 17:29:00,43.4,36.7,25.21,NE,35,14.0,-999.0,77,-99.99,,,-99.99,dwt +perl,2013-01-08 01:29:00,
2013-01-07 17:34:00,43.5,37.1,25.21,NNE,27,9.0,-999.0,78,-99.99,,,-99.99,dwt +perl,2013-01-08 01:34:00,
2013-01-07 17:39:00,43.6,37.5,25.21,NNE,33,12.0,-999.0,79,-99.99,,,-99.99,dwt +perl,2013-01-08 01:39:00,
2013-01-07 17:44:00,43.5,37.4,25.21,NNE,26,16.0,-999.0,79,-99.99,,,-99.99,dwt +perl,2013-01-08 01:44:00,
2013-01-07 17:49:00,43.5,37.4,25.21,NE,35,13.0,-999.0,79,-99.99,,,-99.99,dwt +perl,2013-01-08 01:49:00,
2013-01-07 17:59:00,43.3,37.5,25.21,NNE,14,18.0,-999.0,80,-99.99,,,-99.99,dwt +perl,2013-01-08 01:59:00,
2013-01-07 18:04:00,43.4,37.6,25.21,NNE,20,8.0,-999.0,80,-99.99,,,-99.99,dwt +perl,2013-01-08 02:04:00,
2013-01-07 18:09:00,43.4,37.3,25.21,NE,51,16.0,-999.0,79,-99.99,,,-99.99,dwt +perl,2013-01-08 02:09:00,
2013-01-07 18:14:00,43.6,37.5,25.21,NE,45,8.0,-999.0,79,-99.99,,,-99.99,dwt +perl,2013-01-08 02:14:00,
2013-01-07 18:19:00,43.6,37.5,25.21,NNE,32,10.0,-999.0,79,-99.99,,,-99.99,dwt +perl,2013-01-08 02:19:00,
2013-01-07 18:24:00,43.4,37.3,25.21,NNE,21,12.0,-999.0,79,-99.99,,,-99.99,dwt +perl,2013-01-08 02:24:00,
2013-01-07 18:34:00,43.6,37.5,25.21,NNE,31,11.0,-999.0,79,-99.99,,,-99.99,dwt +perl,2013-01-08 02:34:00,
2013-01-07 18:39:00,43.2,37.1,25.20,NE,34,11.0,-999.0,79,-99.99,,,-99.99,dwt +perl,2013-01-08 02:39:00,
2013-01-07 18:49:00,43.7,37.3,25.20,NNE,29,9.0,-999.0,78,-99.99,,,-99.99,dwt +perl,2013-01-08 02:49:00,
2013-01-07 18:54:00,43.6,37.2,25.20,NNE,16,12.0,-999.0,78,-99.99,,,-99.99,dwt +perl,2013-01-08 02:54:00,
2013-01-07 18:59:00,43.4,37.3,25.20,NE,41,14.0,-999.0,79,-99.99,,,-99.99,dwt +perl,2013-01-08 02:59:00,
2013-01-07 19:04:00,43.2,37.1,25.20,NNE,33,15.0,-999.0,79,-99.99,,,-99.99,dwt +perl,2013-01-08 03:04:00,
2013-01-07 19:09:00,43.3,37.2,25.20,NNE,25,16.0,-999.0,79,-99.99,,,-99.99,dwt +perl,2013-01-08 03:09:00,
2013-01-07 19:14:00,43.6,37.2,25.20,NNE,19,9.0,-999.0,78,-99.99,,,-99.99,dwt +perl,2013-01-08 03:14:00,
2013-01-07 19:19:00,43.2,37.1,25.20,NNE,23,13.0,-999.0,79,-99.99,,,-99.99,dwt +perl,2013-01-08 03:19:00,
2013-01-07 19:24:00,43.0,36.9,25.20,NE,39,11.0,-999.0,79,-99.99,,,-99.99,dwt +perl,2013-01-08 03:24:00,
2013-01-07 19:29:00,42.7,36.6,25.20,NE,45,10.0,-999.0,79,-99.99,,,-99.99,dwt +perl,2013-01-08 03:29:00,
2013-01-07 19:34:00,42.5,36.8,25.20,North,359,15.0,-999.0,80,-99.99,,,-99.99,dwt +perl,2013-01-08 03:34:00,
2013-01-07 19:39:00,42.5,36.8,25.20,NNE,33,11.0,-999.0,80,-99.99,,,-99.99,dwt +perl,2013-01-08 03:39:00,
2013-01-07 19:44:00,42.5,36.8,25.20,NNE,32,8.0,-999.0,80,-99.99,,,-99.99,dwt +perl,2013-01-08 03:44:00,
2013-01-07 19:49:00,42.7,37.0,25.21,NNE,22,12.0,-999.0,80,-99.99,,,-99.99,dwt +perl,2013-01-08 03:49:00,
2013-01-07 19:54:00,42.9,36.8,25.20,NE,37,10.0,-999.0,79,-99.99,,,-99.99,dwt +perl,2013-01-08 03:54:00,
2013-01-07 19:59:00,43.1,37.0,25.20,NNE,31,10.0,-999.0,79,-99.99,,,-99.99,dwt +perl,2013-01-08 03:59:00,
2013-01-07 20:04:00,43.0,36.9,25.20,NE,48,12.0,-999.0,79,-99.99,,,-99.99,dwt +perl,2013-01-08 04:04:00,
2013-01-07 20:09:00,43.2,37.1,25.20,NE,37,13.0,-999.0,79,-99.99,,,-99.99,dwt +perl,2013-01-08 04:09:00,
2013-01-07 20:14:00,43.1,37.0,25.20,NE,41,15.0,-999.0,79,-99.99,,,-99.99,dwt +perl,2013-01-08 04:14:00,
2013-01-07 20:19:00,42.8,37.1,25.20,NNE,23,16.0,-999.0,80,-99.99,,,-99.99,dwt +perl,2013-01-08 04:19:00,
2013-01-07 20:24:00,42.9,37.2,25.20,NE,37,10.0,-999.0,80,-99.99,,,-99.99,dwt +perl,2013-01-08 04:24:00,
2013-01-07 20:29:00,43.2,37.1,25.20,NE,44,8.0,-999.0,79,-99.99,,,-99.99,dwt +perl,2013-01-08 04:29:00,
2013-01-07 20:34:00,43.0,36.9,25.20,NNE,22,15.0,-999.0,79,-99.99,,,-99.99,dwt +perl,2013-01-08 04:34:00,
2013-01-07 20:39:00,43.3,36.9,25.20,NE,41,13.0,-999.0,78,-99.99,,,-99.99,dwt +perl,2013-01-08 04:39:00,
2013-01-07 20:44:00,43.1,36.7,25.20,NNE,33,14.0,-999.0,78,-99.99,,,-99.99,dwt +perl,2013-01-08 04:44:00,
2013-01-07 20:49:00,43.2,36.8,25.20,NNE,17,15.0,-999.0,78,-99.99,,,-99.99,dwt +perl,2013-01-08 04:49:00,
2013-01-07 20:54:00,43.3,37.2,25.20,NNE,14,22.0,-999.0,79,-99.99,,,-99.99,dwt +perl,2013-01-08 04:54:00,
2013-01-07 20:59:00,43.7,37.3,25.20,NNE,27,10.0,-999.0,78,-99.99,,,-99.99,dwt +perl,2013-01-08 04:59:00,
2013-01-07 21:04:00,43.6,37.2,25.20,NNE,29,15.0,-999.0,78,-99.99,,,-99.99,dwt +perl,2013-01-08 05:04:00,
2013-01-07 21:09:00,43.7,37.3,25.21,NNE,23,21.0,-999.0,78,-99.99,,,-99.99,dwt +perl,2013-01-08 05:09:00,
2013-01-07 21:14:00,43.4,37.0,25.21,NE,49,13.0,-999.0,78,-99.99,,,-99.99,dwt +perl,2013-01-08 05:14:00,
2013-01-07 21:19:00,43.3,37.5,25.20,NE,35,5.0,-999.0,80,-99.99,,,-99.99,dwt +perl,2013-01-08 05:19:00,
2013-01-07 21:24:00,42.7,37.0,25.21,NE,35,14.0,-999.0,80,-99.99,,,-99.99,dwt +perl,2013-01-08 05:24:00,
2013-01-07 21:29:00,43.1,37.3,25.21,NNE,33,11.0,-999.0,80,-99.99,,,-99.99,dwt +perl,2013-01-08 05:29:00,
2013-01-07 21:34:00,43.1,37.0,25.21,NNE,33,13.0,-999.0,79,-99.99,,,-99.99,dwt +perl,2013-01-08 05:34:00,
2013-01-07 21:39:00,43.1,37.0,25.20,NNE,27,13.0,-999.0,79,-99.99,,,-99.99,dwt +perl,2013-01-08 05:39:00,
2013-01-07 21:44:00,43.7,37.3,25.19,NNE,33,13.0,-999.0,78,-99.99,,,-99.99,dwt +perl,2013-01-08 05:44:00,
2013-01-07 21:49:00,44.0,37.3,25.20,North,4,14.0,-999.0,77,-99.99,,,-99.99,dwt +perl,2013-01-08 05:49:00,
2013-01-07 21:54:00,44.1,37.3,25.20,NNE,26,17.0,-999.0,77,-99.99,,,-99.99,dwt +perl,2013-01-08 05:54:00,
2013-01-07 21:59:00,44.3,37.2,25.20,NE,41,11.0,-999.0,76,-99.99,,,-99.99,dwt +perl,2013-01-08 05:59:00,
2013-01-07 22:04:00,44.5,37.4,25.20,NE,37,11.0,-999.0,76,-99.99,,,-99.99,dwt +perl,2013-01-08 06:04:00,
2013-01-07 22:09:00,44.2,37.1,25.20,NNE,24,12.0,-999.0,76,-99.99,,,-99.99,dwt +perl,2013-01-08 06:09:00,
2013-01-07 22:14:00,44.6,37.2,25.20,NNE,33,13.0,-999.0,75,-99.99,,,-99.99,dwt +perl,2013-01-08 06:14:00,
2013-01-07 22:19:00,44.5,37.4,25.20,NE,48,16.0,-999.0,76,-99.99,,,-99.99,dwt +perl,2013-01-08 06:19:00,
2013-01-07 22:24:00,44.3,37.2,25.20,NE,37,13.0,-999.0,76,-99.99,,,-99.99,dwt +perl,2013-01-08 06:24:00,
2013-01-07 22:29:00,44.1,37.3,25.20,NNE,20,15.0,-999.0,77,-99.99,,,-99.99,dwt +perl,2013-01-08 06:29:00,
2013-01-07 22:34:00,44.0,37.6,25.20,NE,45,10.0,-999.0,78,-99.99,,,-99.99,dwt +perl,2013-01-08 06:34:00,
2013-01-07 22:39:00,43.6,37.8,25.20,NE,35,11.0,-999.0,80,-99.99,,,-99.99,dwt +perl,2013-01-08 06:39:00,
2013-01-07 22:44:00,43.6,37.5,25.19,NNE,31,16.0,-999.0,79,-99.99,,,-99.99,dwt +perl,2013-01-08 06:44:00,
2013-01-07 22:49:00,43.3,37.5,25.20,NNE,33,17.0,-999.0,80,-99.99,,,-99.99,dwt +perl,2013-01-08 06:49:00,
2013-01-07 22:54:00,43.2,37.5,25.20,NNE,12,15.0,-999.0,80,-99.99,,,-99.99,dwt +perl,2013-01-08 06:54:00,
2013-01-07 22:59:00,42.9,37.2,25.20,NE,47,14.0,-999.0,80,-99.99,,,-99.99,dwt +perl,2013-01-08 06:59:00,
2013-01-07 23:04:00,42.9,37.2,25.20,NE,37,16.0,-999.0,80,-99.99,,,-99.99,dwt +perl,2013-01-08 07:04:00,
2013-01-07 23:09:00,42.7,37.3,25.19,NE,37,12.0,-999.0,81,-99.99,,,-99.99,dwt +perl,2013-01-08 07:09:00,
2013-01-07 23:14:00,43.3,37.2,25.19,NNE,29,9.0,-999.0,79,-99.99,,,-99.99,dwt +perl,2013-01-08 07:14:00,
2013-01-07 23:19:00,42.9,36.8,25.19,NE,41,14.0,-999.0,79,-99.99,,,-99.99,dwt +perl,2013-01-08 07:19:00,
2013-01-07 23:24:00,42.7,36.6,25.19,NE,43,15.0,-999.0,79,-99.99,,,-99.99,dwt +perl,2013-01-08 07:24:00,
2013-01-07 23:29:00,42.6,36.5,25.19,NNE,31,20.0,-999.0,79,-99.99,,,-99.99,dwt +perl,2013-01-08 07:29:00,
2013-01-07 23:34:00,43.2,36.8,25.19,NE,47,15.0,-999.0,78,-99.99,,,-99.99,dwt +perl,2013-01-08 07:34:00,
2013-01-07 23:39:00,43.8,36.7,25.19,NNE,27,20.0,-999.0,76,-99.99,,,-99.99,dwt +perl,2013-01-08 07:39:00,
2013-01-07 23:44:00,43.9,36.5,25.19,NNE,27,15.0,-999.0,75,-99.99,,,-99.99,dwt +perl,2013-01-08 07:44:00,
2013-01-07 23:49:00,43.8,36.7,25.19,NE,35,14.0,-999.0,76,-99.99,,,-99.99,dwt +perl,2013-01-08 07:49:00,
2013-01-07 23:54:00,44.6,36.8,25.19,NE,47,17.0,-999.0,74,-99.99,,,-99.99,dwt +perl,2013-01-08 07:54:00,
2013-01-07 23:59:00,44.7,36.6,25.19,NE,42,13.0,-999.0,73,-99.99,,,-99.99,dwt +perl,2013-01-08 07:59:00,